AXCGGARGarmin  id=247  GPS 72 Software Version 2.50|2140330771
HFDTE230915
HFPLTPilot:UNREGISTERED
HFTZOTimezone:2
HFSITSite:
HPGTYGliderType:
HPGIDGliderID:
HFDTM100DATUM:WGS-1984
HFCIDCOMPETITIONID:
HFCCLCOMPETITIONCLASS:
LXCG     ICON:C:\Program Files\CompeGPS\symbols\IconsPlay\cronos.ico
LXCG     COLOR:000119000
I00
B0728153737986N00049432WA0000000151
B0728213737990N00049427WA0000000152
B0728273737998N00049421WA0000000154
B0728333737997N00049408WA0000000156
B0728393738006N00049397WA0000000156
B0728453738017N00049392WA0000000157
B0728513738037N00049406WA0000000161
B0728573738057N00049446WA0000000161
B0729033738082N00049467WA0000000163
B0729093738100N00049462WA0000000165
B0729153738113N00049447WA0000000171
B0729213738120N00049429WA0000000177
B0729273738136N00049418WA0000000181
B0729333738163N00049434WA0000000183
B0729393738191N00049455WA0000000184
B0729453738215N00049496WA0000000183
B0729513738239N00049528WA0000000190
B0729573738234N00049521WA0000000188
B0730033738218N00049516WA0000000192
B0730093738224N00049507WA0000000193
B0730153738220N00049493WA0000000197
B0730213738211N00049479WA0000000199
B0730273738210N00049466WA0000000202
B0730333738234N00049473WA0000000200
B0730393738260N00049501WA0000000202
B0730453738281N00049511WA0000000201
B0730513738262N00049519WA0000000199
B0730573738231N00049539WA0000000202
B0731033738206N00049543WA0000000203
B0731093738207N00049535WA0000000206
B0731153738219N00049524WA0000000210
B0731213738220N00049507WA0000000217
B0731273738223N00049492WA0000000220
B0731333738207N00049489WA0000000224
B0731393738214N00049536WA0000000228
B0731453738228N00049527WA0000000234
B0731513738242N00049520WA0000000237
B0731573738259N00049519WA0000000244
B0732033738272N00049518WA0000000239
B0732093738245N00049526WA0000000239
B0732153738218N00049536WA0000000239
B0732213738228N00049528WA0000000239
B0732273738254N00049537WA0000000236
B0732333738272N00049531WA0000000238
B0732393738292N00049529WA0000000235
B0732453738296N00049525WA0000000230
B0732513738273N00049522WA0000000232
B0732573738253N00049514WA0000000237
B0733033738253N00049501WA0000000241
B0733093738272N00049534WA0000000239
B0733153738242N00049568WA0000000238
B0733213738212N00049567WA0000000250
B0733273738183N00049568WA0000000267
B0733333738171N00049553WA0000000282
B0733393738170N00049537WA0000000294
B0733453738174N00049524WA0000000305
B0733513738177N00049510WA0000000311
B0733573738181N00049495WA0000000315
B0734033738186N00049476WA0000000322
B0734093738194N00049462WA0000000332
B0734153738203N00049452WA0000000338
B0734213738210N00049443WA0000000340
B0734273738192N00049443WA0000000339
B0734333738177N00049494WA0000000340
B0734393738197N00049510WA0000000342
B0734453738210N00049506WA0000000340
B0734513738227N00049505WA0000000341
B0734573738239N00049500WA0000000340
B0735033738248N00049493WA0000000339
B0735093738223N00049490WA0000000335
B0735153738198N00049484WA0000000332
B0735213738176N00049474WA0000000330
B0735273738154N00049461WA0000000330
B0735333738142N00049446WA0000000339
B0735393738139N00049428WA0000000343
B0735453738140N00049413WA0000000344
B0735513738149N00049403WA0000000348
B0735573738152N00049392WA0000000347
B0736033738123N00049406WA0000000348
B0736093738132N00049447WA0000000353
B0736153738145N00049444WA0000000352
B0736213738141N00049428WA0000000353
B0736273738140N00049414WA0000000357
B0736333738146N00049404WA0000000356
B0736393738150N00049391WA0000000353
B0736453738157N00049380WA0000000355
B0736513738167N00049372WA0000000359
B0736573738177N00049365WA0000000363
B0737033738183N00049354WA0000000359
B0737093738187N00049339WA0000000355
B0737153738196N00049327WA0000000352
B0737213738195N00049310WA0000000359
B0737273738191N00049290WA0000000359
B0737333738191N00049272WA0000000356
B0737393738188N00049254WA0000000358
B0737453738187N00049240WA0000000357
B0737513738185N00049224WA0000000357
B0737573738185N00049211WA0000000345
B0738033738179N00049193WA0000000335
B0738093738176N00049176WA0000000328
B0738153738176N00049159WA0000000317
B0738213738174N00049141WA0000000312
B0738273738170N00049125WA0000000305
B0738333738166N00049113WA0000000304
B0738393738164N00049098WA0000000299
B0738453738158N00049081WA0000000302
B0738513738157N00049070WA0000000305
B0738573738153N00049054WA0000000299
B0739033738150N00049040WA0000000297
B0739093738146N00049023WA0000000294
B0739153738142N00049006WA0000000294
B0739213738140N00048992WA0000000291
B0739273738141N00048976WA0000000295
B0739333738144N00048960WA0000000292
B0739393738142N00048942WA0000000285
B0739453738141N00048926WA0000000286
B0739513738141N00048909WA0000000284
B0739573738140N00048891WA0000000286
B0740033738137N00048879WA0000000287
B0740093738137N00048864WA0000000279
B0740153738135N00048851WA0000000276
B0740213738133N00048838WA0000000272
B0740273738132N00048825WA0000000266
B0740333738130N00048814WA0000000257
B0740393738123N00048802WA0000000250
B0740453738117N00048791WA0000000240
B0740513738105N00048779WA0000000231
B0740573738092N00048766WA0000000233
B0741033738088N00048753WA0000000225
B0741093738109N00048783WA0000000213
B0741153738112N00048848WA0000000204
B0741213738110N00048909WA0000000209
B0741273738129N00048930WA0000000202
B0741333738115N00048924WA0000000201
B0741393738091N00048927WA0000000193
B0741453738059N00048972WA0000000183
B0741513738030N00049010WA0000000183
B0741573738018N00048999WA0000000183
B0742033738029N00048997WA0000000168
B0742093738050N00049045WA0000000161
B0742153738061N00049109WA0000000155
B0742213738067N00049162WA0000000159
B0742273738066N00049216WA0000000160
B0742333738058N00049273WA0000000159
B0742393738046N00049330WA0000000154
B0742453738029N00049385WA0000000153
B0742513738030N00049439WA0000000152
B0742573738047N00049481WA0000000150
B0743033738069N00049521WA0000000157
B0743093738067N00049509WA0000000166
B0743153738056N00049491WA0000000179
B0743213738051N00049480WA0000000180
B0743273738053N00049469WA0000000179
B0743333738058N00049460WA0000000177
B0743393738066N00049454WA0000000180
B0743453738075N00049449WA0000000179
B0743513738094N00049450WA0000000177
B0743573738118N00049455WA0000000184
B0744033738135N00049452WA0000000193
B0744093738153N00049457WA0000000198
B0744153738174N00049469WA0000000206
B0744213738200N00049488WA0000000214
B0744273738226N00049504WA0000000219
B0744333738234N00049498WA0000000222
B0744393738238N00049493WA0000000224
B0744453738255N00049493WA0000000223
B0744513738270N00049490WA0000000224
B0744573738288N00049491WA0000000224
B0745033738305N00049493WA0000000223
B0745093738277N00049505WA0000000222
B0745153738249N00049511WA0000000225
B0745213738249N00049499WA0000000231
B0745273738255N00049488WA0000000235
B0745333738271N00049481WA0000000239
B0745393738287N00049475WA0000000241
B0745453738300N00049468WA0000000240
B0745513738313N00049462WA0000000243
B0745573738328N00049455WA0000000245
B0746033738338N00049445WA0000000246
B0746093738354N00049437WA0000000243
B0746153738367N00049431WA0000000233
B0746213738378N00049422WA0000000225
B0746273738361N00049417WA0000000217
B0746333738332N00049429WA0000000207
B0746393738301N00049459WA0000000202
B0746453738268N00049487WA0000000206
B0746513738238N00049504WA0000000218
B0746573738216N00049503WA0000000224
B0747033738228N00049497WA0000000227
B0747093738253N00049502WA0000000237
B0747153738275N00049504WA0000000241
B0747213738298N00049503WA0000000240
B0747273738313N00049502WA0000000240
B0747333738296N00049496WA0000000236
B0747393738277N00049497WA0000000237
B0747453738290N00049490WA0000000235
B0747513738311N00049484WA0000000237
B0747573738327N00049474WA0000000242
B0748033738327N00049461WA0000000243
B0748093738299N00049488WA0000000245
B0748153738277N00049503WA0000000249
B0748213738257N00049507WA0000000252
B0748273738229N00049518WA0000000253
B0748333738201N00049536WA0000000253
B0748393738172N00049548WA0000000251
B0748453738149N00049548WA0000000251
B0748513738136N00049538WA0000000253
B0748573738133N00049528WA0000000252
B0749033738143N00049524WA0000000252
B0749093738169N00049558WA0000000252
B0749153738178N00049556WA0000000254
B0749213738174N00049544WA0000000260
B0749273738183N00049537WA0000000263
B0749333738197N00049534WA0000000262
B0749393738216N00049538WA0000000261
B0749453738221N00049527WA0000000267
B0749513738236N00049524WA0000000272
B0749573738240N00049518WA0000000270
B0750033738253N00049513WA0000000265
B0750093738261N00049504WA0000000261
B0750153738271N00049502WA0000000267
B0750213738280N00049494WA0000000271
B0750273738290N00049488WA0000000266
B0750333738306N00049486WA0000000259
B0750393738323N00049486WA0000000252
B0750453738328N00049480WA0000000252
B0750513738335N00049471WA0000000250
B0750573738340N00049460WA0000000248
B0751033738347N00049451WA0000000244
B0751093738356N00049445WA0000000239
B0751153738367N00049439WA0000000238
B0751213738378N00049433WA0000000233
B0751273738390N00049426WA0000000227
B0751333738397N00049415WA0000000223
B0751393738401N00049403WA0000000216
B0751453738402N00049391WA0000000217
B0751513738373N00049402WA0000000212
B0751573738344N00049417WA0000000209
B0752033738312N00049432WA0000000209
B0752093738286N00049436WA0000000211
B0752153738260N00049438WA0000000207
B0752213738230N00049476WA0000000202
B0752273738198N00049509WA0000000204
B0752333738164N00049524WA0000000207
B0752393738150N00049514WA0000000213
B0752453738147N00049501WA0000000224
B0752513738158N00049496WA0000000228
B0752573738181N00049510WA0000000233
B0753033738205N00049527WA0000000235
B0753093738227N00049532WA0000000236
B0753153738234N00049522WA0000000236
B0753213738235N00049509WA0000000239
B0753273738241N00049499WA0000000245
B0753333738251N00049490WA0000000250
B0753393738252N00049482WA0000000253
B0753453738225N00049511WA0000000258
B0753513738239N00049557WA0000000264
B0753573738251N00049553WA0000000267
B0754033738258N00049543WA0000000266
B0754093738266N00049534WA0000000267
B0754153738274N00049527WA0000000268
B0754213738284N00049519WA0000000270
B0754273738288N00049508WA0000000269
B0754333738303N00049500WA0000000274
B0754393738301N00049493WA0000000274
B0754453738271N00049525WA0000000276
B0754513738243N00049542WA0000000276
B0754573738228N00049540WA0000000287
B0755033738218N00049531WA0000000295
B0755093738209N00049523WA0000000295
B0755153738216N00049513WA0000000294
B0755213738218N00049499WA0000000297
B0755273738228N00049492WA0000000306
B0755333738231N00049483WA0000000309
B0755393738209N00049493WA0000000308
B0755453738181N00049528WA0000000307
B0755513738155N00049538WA0000000305
B0755573738142N00049531WA0000000304
B0756033738130N00049523WA0000000303
B0756093738120N00049512WA0000000299
B0756153738112N00049502WA0000000295
B0756213738102N00049492WA0000000291
B0756273738091N00049483WA0000000287
B0756333738081N00049473WA0000000284
B0756393738075N00049462WA0000000281
B0756453738068N00049450WA0000000278
B0756513738053N00049440WA0000000274
B0756573738039N00049430WA0000000270
B0757033738027N00049419WA0000000267
B0757093738016N00049408WA0000000262
B0757153738004N00049397WA0000000258
B0757213737993N00049386WA0000000254
B0757273737984N00049375WA0000000254
B0757333737976N00049362WA0000000249
B0757393737967N00049350WA0000000241
B0757453737958N00049339WA0000000234
B0757513737954N00049327WA0000000227
B0757573737949N00049316WA0000000222
B0758033737938N00049304WA0000000215
B0758093737925N00049293WA0000000208
B0758153737917N00049283WA0000000202
B0758213737937N00049290WA0000000197
B0758273737962N00049315WA0000000191
B0758333737980N00049363WA0000000188
B0758393738003N00049406WA0000000187
B0758453738024N00049455WA0000000190
B0758513738048N00049475WA0000000192
B0758573738069N00049475WA0000000193
B0759033738093N00049481WA0000000197
B0759093738117N00049488WA0000000202
B0759153738147N00049508WA0000000207
B0759213738175N00049518WA0000000212
B0759273738196N00049512WA0000000218
B0759333738214N00049504WA0000000229
B0759393738238N00049499WA0000000244
B0759453738260N00049494WA0000000250
B0759513738282N00049492WA0000000255
B0759573738291N00049485WA0000000252
B0800033738279N00049481WA0000000243
B0800093738248N00049497WA0000000239
B0800153738221N00049504WA0000000249
B0800213738204N00049497WA0000000258
B0800273738191N00049486WA0000000267
B0800333738187N00049471WA0000000276
B0800393738195N00049458WA0000000287
B0800453738203N00049447WA0000000295
B0800513738181N00049452WA0000000300
B0800573738175N00049505WA0000000306
B0801033738197N00049518WA0000000313
B0801093738211N00049511WA0000000318
B0801153738231N00049512WA0000000325
B0801213738242N00049510WA0000000330
B0801273738240N00049499WA0000000336
B0801333738246N00049493WA0000000338
B0801393738252N00049484WA0000000335
B0801453738249N00049472WA0000000332
B0801513738242N00049456WA0000000335
B0801573738248N00049437WA0000000344
B0802033738249N00049426WA0000000346
B0802093738220N00049443WA0000000341
B0802153738220N00049503WA0000000338
B0802213738243N00049524WA0000000347
B0802273738255N00049520WA0000000349
B0802333738252N00049507WA0000000345
B0802393738250N00049494WA0000000341
B0802453738248N00049480WA0000000334
B0802513738250N00049466WA0000000330
B0802573738254N00049454WA0000000325
B0803033738258N00049441WA0000000318
B0803093738262N00049428WA0000000314
B0803153738265N00049412WA0000000307
B0803213738264N00049397WA0000000302
B0803273738265N00049381WA0000000296
B0803333738262N00049366WA0000000289
B0803393738259N00049352WA0000000286
B0803453738254N00049338WA0000000281
B0803513738247N00049324WA0000000278
B0803573738244N00049309WA0000000272
B0804033738243N00049294WA0000000267
B0804093738241N00049281WA0000000260
B0804153738240N00049268WA0000000254
B0804213738232N00049255WA0000000244
B0804273738207N00049249WA0000000239
B0804333738189N00049243WA0000000241
B0804393738192N00049232WA0000000240
B0804453738187N00049220WA0000000239
B0804513738180N00049206WA0000000236
B0804573738172N00049192WA0000000232
B0805033738166N00049176WA0000000230
B0805093738162N00049161WA0000000234
B0805153738164N00049147WA0000000237
B0805213738168N00049130WA0000000239
B0805273738170N00049115WA0000000243
B0805333738177N00049105WA0000000247
B0805393738170N00049093WA0000000249
B0805453738177N00049081WA0000000253
B0805513738185N00049073WA0000000253
B0805573738181N00049063WA0000000252
B0806033738172N00049052WA0000000246
B0806093738163N00049039WA0000000242
B0806153738154N00049026WA0000000234
B0806213738142N00049010WA0000000227
B0806273738136N00048997WA0000000227
B0806333738132N00048982WA0000000225
B0806393738128N00048966WA0000000219
B0806453738121N00048945WA0000000211
B0806513738121N00048930WA0000000211
B0806573738128N00048916WA0000000214
B0807033738134N00048904WA0000000215
B0807093738138N00048892WA0000000211
B0807153738122N00048887WA0000000205
B0807213738090N00048909WA0000000193
B0807273738060N00048951WA0000000180
B0807333738041N00049010WA0000000172
B0807393738037N00049076WA0000000168
B0807453738041N00049140WA0000000167
B0807513738050N00049194WA0000000176
B0807573738064N00049197WA0000000169
B0808033738042N00049197WA0000000171
B0808093738020N00049240WA0000000175
B0808153738036N00049274WA0000000180
B0808213738040N00049264WA0000000184
B0808273738013N00049285WA0000000188
B0808333738024N00049329WA0000000190
B0808393738033N00049322WA0000000191
B0808453738006N00049336WA0000000199
B0808513738021N00049378WA0000000206
B0808573738030N00049369WA0000000209
B0809033738022N00049357WA0000000214
B0809093738036N00049353WA0000000212
B0809153738063N00049377WA0000000208
B0809213738088N00049401WA0000000219
B0809273738110N00049418WA0000000225
B0809333738135N00049439WA0000000224
B0809393738158N00049474WA0000000221
B0809453738177N00049516WA0000000220
B0809513738197N00049536WA0000000222
B0809573738187N00049524WA0000000223
B0810033738178N00049512WA0000000223
B0810093738174N00049498WA0000000224
B0810153738161N00049486WA0000000221
B0810213738140N00049472WA0000000224
B0810273738144N00049456WA0000000225
B0810333738159N00049452WA0000000231
B0810393738172N00049446WA0000000236
B0810453738145N00049457WA0000000237
B0810513738154N00049504WA0000000241
B0810573738165N00049498WA0000000247
B0811033738174N00049492WA0000000250
B0811093738185N00049482WA0000000250
B0811153738198N00049475WA0000000250
B0811213738209N00049464WA0000000249
B0811273738223N00049454WA0000000249
B0811333738241N00049447WA0000000247
B0811393738255N00049439WA0000000242
B0811453738265N00049432WA0000000237
B0811513738237N00049453WA0000000236
B0811573738209N00049470WA0000000233
B0812033738210N00049462WA0000000230
B0812093738237N00049473WA0000000227
B0812153738264N00049481WA0000000225
B0812213738286N00049480WA0000000222
B0812273738308N00049482WA0000000218
B0812333738328N00049484WA0000000220
B0812393738345N00049483WA0000000216
B0812453738363N00049480WA0000000213
B0812513738381N00049479WA0000000211
B0812573738367N00049473WA0000000205
B0813033738346N00049473WA0000000198
B0813093738321N00049474WA0000000195
B0813153738297N00049468WA0000000193
B0813213738272N00049471WA0000000199
B0813273738241N00049486WA0000000201
B0813333738211N00049490WA0000000201
B0813393738184N00049490WA0000000200
B0813453738153N00049496WA0000000199
B0813513738122N00049501WA0000000204
B0813573738122N00049489WA0000000213
B0814033738133N00049479WA0000000222
B0814093738146N00049473WA0000000227
B0814153738163N00049470WA0000000229
B0814213738187N00049478WA0000000225
B0814273738214N00049499WA0000000227
B0814333738220N00049491WA0000000221
B0814393738190N00049513WA0000000218
B0814453738158N00049532WA0000000218
B0814513738141N00049534WA0000000226
B0814573738131N00049527WA0000000237
B0815033738131N00049512WA0000000239
B0815093738137N00049495WA0000000249
B0815153738138N00049485WA0000000252
B0815213738147N00049475WA0000000256
B0815273738161N00049470WA0000000259
B0815333738177N00049467WA0000000271
B0815393738194N00049467WA0000000274
B0815453738205N00049462WA0000000276
B0815513738180N00049494WA0000000276
B0815573738200N00049534WA0000000278
B0816033738211N00049528WA0000000284
B0816093738213N00049518WA0000000289
B0816153738216N00049506WA0000000290
B0816213738219N00049495WA0000000293
B0816273738226N00049481WA0000000297
B0816333738237N00049473WA0000000308
B0816393738253N00049467WA0000000323
B0816453738266N00049461WA0000000321
B0816513738281N00049457WA0000000327
B0816573738297N00049451WA0000000332
B0817033738314N00049451WA0000000339
B0817093738322N00049442WA0000000345
B0817153738332N00049434WA0000000347
B0817213738345N00049427WA0000000352
B0817273738354N00049418WA0000000343
B0817333738361N00049407WA0000000332
B0817393738365N00049391WA0000000325
B0817453738372N00049373WA0000000319
B0817513738375N00049357WA0000000314
B0817573738378N00049343WA0000000305
B0818033738383N00049328WA0000000295
B0818093738387N00049314WA0000000287
B0818153738380N00049294WA0000000279
B0818213738373N00049272WA0000000267
B0818273738367N00049248WA0000000259
B0818333738358N00049229WA0000000249
B0818393738346N00049217WA0000000247
B0818453738343N00049203WA0000000246
B0818513738344N00049189WA0000000240
B0818573738350N00049174WA0000000235
B0819033738361N00049165WA0000000229
B0819093738371N00049160WA0000000225
B0819153738386N00049158WA0000000220
B0819213738397N00049152WA0000000216
B0819273738410N00049142WA0000000209
B0819333738423N00049137WA0000000209
B0819393738413N00049125WA0000000202
B0819453738381N00049143WA0000000194
B0819513738350N00049184WA0000000184
B0819573738328N00049239WA0000000180
B0820033738311N00049296WA0000000176
B0820093738294N00049355WA0000000168
B0820153738280N00049415WA0000000161
B0820213738259N00049469WA0000000161
B0820273738229N00049496WA0000000168
B0820333738206N00049493WA0000000171
B0820393738188N00049483WA0000000174
B0820453738165N00049473WA0000000177
B0820513738137N00049470WA0000000181
B0820573738130N00049455WA0000000188
B0821033738154N00049471WA0000000196
B0821093738175N00049503WA0000000203
B0821153738199N00049534WA0000000212
B0821213738224N00049558WA0000000218
B0821273738221N00049549WA0000000211
B0821333738213N00049526WA0000000256
B0821393738194N00049528WA0000000236
B0821453738176N00049514WA0000000259
B0821513738169N00049502WA0000000264
B0821573738168N00049493WA0000000268
B0822033738176N00049488WA0000000274
B0822093738187N00049488WA0000000285
B0822153738199N00049488WA0000000289
B0822213738209N00049491WA0000000284
B0822273738193N00049485WA0000000282
B0822333738178N00049474WA0000000279
B0822393738180N00049463WA0000000278
B0822453738199N00049498WA0000000280
B0822513738173N00049535WA0000000276
B0822573738150N00049530WA0000000275
B0823033738138N00049518WA0000000285
B0823093738138N00049505WA0000000300
B0823153738133N00049491WA0000000305
B0823213738129N00049477WA0000000307
B0823273738129N00049464WA0000000314
B0823333738127N00049447WA0000000321
B0823393738126N00049434WA0000000328
B0823453738131N00049423WA0000000331
B0823513738136N00049410WA0000000343
B0823573738141N00049400WA0000000351
B0824033738148N00049392WA0000000348
B0824093738151N00049377WA0000000339
B0824153738151N00049360WA0000000339
B0824213738152N00049343WA0000000334
B0824273738152N00049328WA0000000333
B0824333738153N00049318WA0000000332
B0824393738153N00049305WA0000000332
B0824453738152N00049292WA0000000327
B0824513738151N00049282WA0000000326
B0824573738147N00049268WA0000000329
B0825033738142N00049251WA0000000321
B0825093738139N00049235WA0000000321
B0825153738136N00049219WA0000000317
B0825213738130N00049201WA0000000313
B0825273738124N00049184WA0000000305
B0825333738119N00049162WA0000000298
B0825393738115N00049146WA0000000302
B0825453738115N00049134WA0000000308
B0825513738118N00049123WA0000000313
B0825573738118N00049111WA0000000314
B0826033738108N00049095WA0000000312
B0826093738100N00049080WA0000000310
B0826153738096N00049069WA0000000317
B0826213738093N00049055WA0000000320
B0826273738093N00049040WA0000000327
B0826333738090N00049029WA0000000332
B0826393738085N00049015WA0000000328
B0826453738083N00049002WA0000000326
B0826513738083N00048983WA0000000324
B0826573738085N00048966WA0000000324
B0827033738088N00048953WA0000000322
B0827093738086N00048938WA0000000322
B0827153738084N00048922WA0000000317
B0827213738081N00048904WA0000000313
B0827273738080N00048888WA0000000313
B0827333738078N00048871WA0000000310
B0827393738079N00048852WA0000000310
B0827453738079N00048836WA0000000307
B0827513738077N00048817WA0000000310
B0827573738077N00048802WA0000000305
B0828033738075N00048787WA0000000303
B0828093738073N00048773WA0000000293
B0828153738069N00048758WA0000000286
B0828213738072N00048745WA0000000288
B0828273738071N00048732WA0000000292
B0828333738069N00048717WA0000000293
B0828393738069N00048706WA0000000286
B0828453738068N00048694WA0000000281
B0828513738067N00048679WA0000000272
B0828573738068N00048665WA0000000263
B0829033738072N00048652WA0000000259
B0829093738072N00048636WA0000000257
B0829153738070N00048619WA0000000247
B0829213738086N00048617WA0000000232
B0829273738112N00048648WA0000000218
B0829333738133N00048697WA0000000208
B0829393738150N00048747WA0000000204
B0829453738169N00048791WA0000000207
B0829513738184N00048798WA0000000209
B0829573738181N00048787WA0000000212
B0830033738192N00048778WA0000000214
B0830093738208N00048773WA0000000220
B0830153738226N00048776WA0000000225
B0830213738215N00048772WA0000000231
B0830273738198N00048819WA0000000237
B0830333738219N00048835WA0000000243
B0830393738224N00048826WA0000000247
B0830453738231N00048818WA0000000249
B0830513738241N00048812WA0000000246
B0830573738254N00048810WA0000000242
B0831033738275N00048845WA0000000236
B0831093738277N00048906WA0000000232
B0831153738277N00048963WA0000000233
B0831213738293N00048986WA0000000231
B0831273738287N00048976WA0000000225
B0831333738297N00048969WA0000000221
B0831393738319N00048995WA0000000213
B0831453738325N00049051WA0000000206
B0831513738312N00049110WA0000000204
B0831573738305N00049164WA0000000205
B0832033738327N00049201WA0000000195
B0832093738336N00049257WA0000000192
B0832153738323N00049315WA0000000200
B0832213738334N00049360WA0000000201
B0832273738350N00049359WA0000000209
B0832333738358N00049350WA0000000202
B0832393738378N00049381WA0000000190
B0832453738358N00049436WA0000000182
B0832513738326N00049474WA0000000179
B0832573738295N00049498WA0000000187
B0833033738272N00049496WA0000000189
B0833093738246N00049498WA0000000197
B0833153738230N00049491WA0000000196
B0833213738216N00049479WA0000000191
B0833273738187N00049485WA0000000195
B0833333738162N00049480WA0000000198
B0833393738157N00049467WA0000000203
B0833453738155N00049453WA0000000208
B0833513738164N00049444WA0000000213
B0833573738179N00049440WA0000000216
B0834033738196N00049438WA0000000216
B0834093738210N00049431WA0000000214
B0834153738215N00049420WA0000000210
B0834213738184N00049439WA0000000206
B0834273738186N00049489WA0000000206
B0834333738206N00049527WA0000000207
B0834393738223N00049541WA0000000210
B0834453738207N00049536WA0000000211
B0834513738182N00049529WA0000000213
B0834573738182N00049514WA0000000219
B0835033738182N00049498WA0000000221
B0835093738177N00049483WA0000000228
B0835153738168N00049467WA0000000233
B0835213738161N00049450WA0000000239
B0835273738159N00049436WA0000000251
B0835333738165N00049427WA0000000259
B0835393738176N00049422WA0000000261
B0835453738183N00049412WA0000000264
B0835513738197N00049409WA0000000263
B0835573738212N00049407WA0000000262
B0836033738209N00049397WA0000000260
B0836093738175N00049412WA0000000257
B0836153738140N00049419WA0000000254
B0836213738112N00049414WA0000000255
B0836273738089N00049406WA0000000253
B0836333738073N00049397WA0000000255
B0836393738065N00049383WA0000000267
B0836453738069N00049369WA0000000280
B0836513738079N00049360WA0000000286
B0836573738089N00049351WA0000000289
B0837033738100N00049346WA0000000290
B0837093738115N00049345WA0000000288
B0837153738110N00049333WA0000000281
B0837213738104N00049317WA0000000279
B0837273738099N00049304WA0000000282
B0837333738102N00049295WA0000000285
B0837393738112N00049286WA0000000290
B0837453738126N00049278WA0000000293
B0837513738124N00049261WA0000000287
B0837573738106N00049244WA0000000281
B0838033738093N00049227WA0000000279
B0838093738083N00049210WA0000000280
B0838153738075N00049192WA0000000281
B0838213738069N00049174WA0000000282
B0838273738066N00049158WA0000000283
B0838333738062N00049144WA0000000286
B0838393738063N00049129WA0000000290
B0838453738073N00049119WA0000000296
B0838513738083N00049110WA0000000304
B0838573738095N00049101WA0000000312
B0839033738100N00049087WA0000000319
B0839093738110N00049075WA0000000327
B0839153738119N00049060WA0000000334
B0839213738126N00049046WA0000000345
B0839273738132N00049030WA0000000355
B0839333738136N00049017WA0000000365
B0839393738139N00049002WA0000000372
B0839453738139N00048989WA0000000376
B0839513738145N00048977WA0000000376
B0839573738148N00048958WA0000000366
B0840033738134N00048939WA0000000364
B0840093738123N00048926WA0000000370
B0840153738112N00048911WA0000000372
B0840213738103N00048894WA0000000366
B0840273738094N00048880WA0000000355
B0840333738085N00048864WA0000000342
B0840393738075N00048842WA0000000326
B0840453738061N00048819WA0000000314
B0840513738045N00048800WA0000000301
B0840573738035N00048778WA0000000290
B0841033738031N00048761WA0000000279
B0841093738020N00048748WA0000000267
B0841153737986N00048761WA0000000254
B0841213737968N00048812WA0000000239
B0841273737975N00048875WA0000000228
B0841333737987N00048931WA0000000215
B0841393738002N00048988WA0000000204
B0841453738017N00049043WA0000000193
B0841513738031N00049096WA0000000186
B0841573738050N00049142WA0000000186
B0842033738070N00049189WA0000000183
B0842093738084N00049244WA0000000178
B0842153738101N00049294WA0000000175
B0842213738114N00049346WA0000000183
B0842273738118N00049400WA0000000189
B0842333738125N00049454WA0000000194
B0842393738145N00049484WA0000000200
B0842453738167N00049498WA0000000202
B0842513738189N00049520WA0000000202
B0842573738210N00049549WA0000000203
B0843033738219N00049539WA0000000205
B0843093738201N00049527WA0000000208
B0843153738175N00049516WA0000000214
B0843213738146N00049510WA0000000217
B0843273738149N00049497WA0000000226
B0843333738170N00049515WA0000000232
B0843393738190N00049539WA0000000240
B0843453738190N00049532WA0000000243
B0843513738189N00049521WA0000000249
B0843573738197N00049515WA0000000255
B0844033738201N00049505WA0000000254
B0844093738203N00049490WA0000000256
B0844153738214N00049479WA0000000258
B0844213738224N00049470WA0000000261
B0844273738236N00049464WA0000000264
B0844333738247N00049458WA0000000260
B0844393738261N00049455WA0000000256
B0844453738278N00049451WA0000000254
B0844513738290N00049444WA0000000251
B0844573738290N00049429WA0000000245
B0845033738288N00049414WA0000000241
B0845093738290N00049401WA0000000235
B0845153738296N00049389WA0000000230
B0845213738305N00049378WA0000000225
B0845273738310N00049368WA0000000218
B0845333738284N00049372WA0000000210
B0845393738252N00049412WA0000000202
B0845453738228N00049464WA0000000200
B0845513738200N00049510WA0000000201
B0845573738167N00049522WA0000000205
B0846033738173N00049518WA0000000206
B0846093738196N00049544WA0000000208
B0846153738211N00049548WA0000000215
B0846213738212N00049536WA0000000216
B0846273738203N00049522WA0000000221
B0846333738200N00049506WA0000000220
B0846393738190N00049487WA0000000221
B0846453738177N00049473WA0000000218
B0846513738167N00049453WA0000000221
B0846573738156N00049438WA0000000221
B0847033738156N00049429WA0000000214
B0847093738171N00049470WA0000000210
B0847153738184N00049518WA0000000217
B0847213738206N00049528WA0000000225
B0847273738210N00049520WA0000000223
B0847333738185N00049516WA0000000223
B0847393738166N00049503WA0000000225
B0847453738155N00049484WA0000000225
B0847513738151N00049468WA0000000233
B0847573738142N00049454WA0000000232
B0848033738144N00049435WA0000000232
B0848093738138N00049418WA0000000230
B0848153738135N00049399WA0000000237
B0848213738140N00049381WA0000000246
B0848273738153N00049370WA0000000257
B0848333738160N00049357WA0000000262
B0848393738158N00049341WA0000000267
B0848453738156N00049327WA0000000269
B0848513738155N00049309WA0000000276
B0848573738151N00049293WA0000000282
B0849033738148N00049280WA0000000276
B0849093738142N00049264WA0000000267
B0849153738136N00049248WA0000000260
B0849213738129N00049236WA0000000252
B0849273738123N00049223WA0000000242
B0849333738117N00049210WA0000000226
B0849393738103N00049198WA0000000210
B0849453738082N00049188WA0000000196
B0849513738096N00049193WA0000000191
B0849573738110N00049234WA0000000180
B0850033738119N00049285WA0000000165
B0850093738128N00049340WA0000000158
B0850153738138N00049396WA0000000154
B0850213738151N00049447WA0000000157
B0850273738173N00049482WA0000000160
B0850333738196N00049493WA0000000165
B0850393738212N00049487WA0000000175
B0850453738215N00049473WA0000000176
B0850513738214N00049459WA0000000180
B0850573738218N00049446WA0000000180
B0851033738222N00049434WA0000000183
B0851093738228N00049423WA0000000180
B0851153738218N00049409WA0000000176
B0851213738201N00049397WA0000000173
B0851273738177N00049398WA0000000171
B0851333738147N00049398WA0000000177
B0851393738124N00049382WA0000000185
B0851453738104N00049363WA0000000187
B0851513738087N00049351WA0000000185
B0851573738060N00049342WA0000000178
B0852033738033N00049335WA0000000175
B0852093738006N00049326WA0000000173
B0852153737981N00049314WA0000000174
B0852213737961N00049299WA0000000181
B0852273737944N00049286WA0000000183
B0852333737932N00049268WA0000000190
B0852393737924N00049254WA0000000192
B0852453737915N00049236WA0000000195
B0852513737914N00049223WA0000000201
B0852573737911N00049213WA0000000209
B0853033737911N00049203WA0000000213
B0853093737907N00049192WA0000000211
B0853153737913N00049184WA0000000201
B0853213737929N00049183WA0000000188
B0853273737944N00049183WA0000000177
B0853333737965N00049189WA0000000165
B0853393737979N00049186WA0000000154
B0853453737984N00049176WA0000000145
B0853513737961N00049177WA0000000140
B0853573737934N00049224WA0000000132
B0854033737903N00049268WA0000000124
B0854093737866N00049284WA0000000119
B0854153737837N00049278WA0000000110
B0854213737820N00049265WA0000000102
B0854273737818N00049249WA0000000097
B0854333737814N00049231WA0000000090
B0854393737805N00049215WA0000000082
B0854453737811N00049199WA0000000078
LXCG     VERSION:5.7
GAA23DE95FA514D50413C44987DF7A5FA78BAAEBC5C342D7A81E9CF3CFF49A23301EB4
G997D01B18BAEAA06B304A8B6E1A9D0D7B408319F67116CF28B12464C3B3CAEFB1F7
G72673EEA3CB299763D2D9262B2AB758FF60B9754D865D627E32D5EB2BDEE3997BFF
G1F647C7FDC64B8CB28E485F6A135F73C7F1A63357C9DF446FA61E6A74516B